createdAt,value
2023-03-26T00:01:17.376Z,56.36
2023-03-26T00:03:44.673Z,56.39
2023-03-26T00:06:12.461Z,56.30
2023-03-26T00:08:41.125Z,56.34
2023-03-26T00:11:10.071Z,56.33
2023-03-26T00:13:36.660Z,56.37
2023-03-26T00:16:04.394Z,56.28
2023-03-26T00:18:31.406Z,56.30
2023-03-26T00:20:58.912Z,56.38
2023-03-26T00:23:27.714Z,56.42
2023-03-26T00:25:55.021Z,56.35
2023-03-26T00:28:23.599Z,56.34
2023-03-26T00:30:57.367Z,56.50
2023-03-26T00:33:24.368Z,56.51
2023-03-26T00:35:59.202Z,56.43
2023-03-26T00:38:27.806Z,56.58
2023-03-26T00:40:55.295Z,56.57
2023-03-26T00:43:22.977Z,56.59
2023-03-26T00:45:53.175Z,56.63
2023-03-26T00:48:31.329Z,56.67
2023-03-26T00:51:05.986Z,56.72
2023-03-26T00:53:32.888Z,56.80
2023-03-26T00:55:59.810Z,56.71
2023-03-26T00:58:27.627Z,56.81
2023-03-26T01:00:57.415Z,56.82
2023-03-26T01:03:26.680Z,56.75
2023-03-26T01:06:07.027Z,56.70
2023-03-26T01:08:44.837Z,56.63
2023-03-26T01:11:21.790Z,56.61
2023-03-26T01:13:56.495Z,56.61
2023-03-26T01:16:31.208Z,56.62
2023-03-26T01:18:57.901Z,56.57
2023-03-26T01:21:28.266Z,56.59
2023-03-26T01:23:59.130Z,56.69
2023-03-26T01:26:54.546Z,56.59
2023-03-26T01:29:23.829Z,56.59
2023-03-26T01:32:00.965Z,56.72
2023-03-26T01:35:16.188Z,56.68
2023-03-26T01:37:55.830Z,56.75
2023-03-26T01:40:32.965Z,56.86
2023-03-26T01:43:27.699Z,56.78
2023-03-26T01:45:56.435Z,56.91
2023-03-26T01:48:30.239Z,56.88
2023-03-26T01:50:56.769Z,56.87
2023-03-26T01:53:25.526Z,56.84
2023-03-26T01:56:23.260Z,56.70
2023-03-26T01:59:09.775Z,56.80
2023-03-26T02:01:57.218Z,56.69
2023-03-26T02:04:33.248Z,56.65
2023-03-26T02:07:12.805Z,56.77
2023-03-26T02:09:47.903Z,56.60
2023-03-26T02:12:16.206Z,56.45
2023-03-26T02:14:44.386Z,56.50
2023-03-26T02:17:11.270Z,56.48
2023-03-26T02:19:38.978Z,56.54
2023-03-26T02:22:05.504Z,56.51
2023-03-26T02:24:32.011Z,56.52
2023-03-26T02:26:58.540Z,56.65
2023-03-26T02:29:25.118Z,56.62
2023-03-26T02:31:51.653Z,56.63
2023-03-26T02:34:18.281Z,56.76
2023-03-26T02:36:44.850Z,56.80
2023-03-26T02:39:12.233Z,56.80
2023-03-26T02:41:39.089Z,56.87
2023-03-26T02:44:06.198Z,56.95
2023-03-26T02:46:34.009Z,57.05
2023-03-26T02:49:00.619Z,56.95
2023-03-26T02:51:27.166Z,56.97
2023-03-26T02:53:53.728Z,56.97
2023-03-26T02:56:20.533Z,57.01
2023-03-26T02:58:47.054Z,57.13
2023-03-26T03:01:13.768Z,57.18
2023-03-26T03:03:40.297Z,57.21
2023-03-26T03:06:06.938Z,57.27
2023-03-26T03:08:33.464Z,57.32
2023-03-26T03:11:03.117Z,57.44
2023-03-26T03:13:30.114Z,57.55
2023-03-26T03:15:56.833Z,57.72
2023-03-26T03:18:23.651Z,57.78
2023-03-26T03:20:50.259Z,57.85
2023-03-26T03:23:17.296Z,58.04
2023-03-26T03:25:43.823Z,57.94
2023-03-26T03:28:10.573Z,57.98
2023-03-26T03:30:37.423Z,58.06
2023-03-26T03:33:04.354Z,58.27
2023-03-26T03:35:30.953Z,58.55
2023-03-26T03:37:58.331Z,58.59
2023-03-26T03:40:25.602Z,58.73
2023-03-26T03:42:52.406Z,58.93
2023-03-26T03:45:19.283Z,59.15
2023-03-26T03:47:45.862Z,59.13
2023-03-26T03:50:12.430Z,59.20
2023-03-26T03:52:38.981Z,59.33
2023-03-26T03:55:05.897Z,59.55
2023-03-26T03:57:32.839Z,59.79
2023-03-26T03:59:59.395Z,59.65
2023-03-26T04:02:26.869Z,59.79
2023-03-26T04:04:53.657Z,60.05
2023-03-26T04:07:20.256Z,60.09
2023-03-26T04:09:46.749Z,60.12
2023-03-26T04:12:14.096Z,60.19
2023-03-26T04:14:40.649Z,60.44
2023-03-26T04:17:07.144Z,60.62
2023-03-26T04:19:33.700Z,60.84
2023-03-26T04:22:00.485Z,60.94
2023-03-26T04:24:26.981Z,60.88
2023-03-26T04:26:53.539Z,60.94
2023-03-26T04:29:20.062Z,60.83
2023-03-26T04:31:46.625Z,60.93
2023-03-26T04:34:23.522Z,61.01
2023-03-26T04:36:51.056Z,61.01
2023-03-26T04:39:17.931Z,61.12
2023-03-26T04:41:44.434Z,61.13
2023-03-26T04:44:10.997Z,61.33
2023-03-26T04:46:37.623Z,61.51
2023-03-26T04:49:04.192Z,61.48
2023-03-26T04:51:37.550Z,61.58
2023-03-26T04:54:05.917Z,61.72
2023-03-26T04:56:51.009Z,61.53
2023-03-26T04:59:22.376Z,61.24
2023-03-26T05:01:48.988Z,60.93
2023-03-26T05:04:15.615Z,60.83
2023-03-26T05:06:42.244Z,60.61
2023-03-26T05:09:09.092Z,60.33
2023-03-26T05:11:35.569Z,60.06
2023-03-26T05:14:02.144Z,59.79
2023-03-26T05:16:29.464Z,59.53
2023-03-26T05:18:55.982Z,59.30
2023-03-26T05:21:22.503Z,59.02
2023-03-26T05:23:49.205Z,58.77
2023-03-26T05:26:15.727Z,58.60
2023-03-26T05:28:42.315Z,58.32
2023-03-26T05:31:10.081Z,58.12
2023-03-26T05:33:37.192Z,57.86
2023-03-26T05:36:09.650Z,57.55
2023-03-26T05:38:36.828Z,57.24
2023-03-26T05:41:06.940Z,57.01
2023-03-26T05:43:33.846Z,57.08
2023-03-26T05:46:00.417Z,56.63
2023-03-26T05:48:27.981Z,56.31
2023-03-26T05:50:56.492Z,55.85
2023-03-26T05:53:25.485Z,55.70
2023-03-26T05:55:52.159Z,55.61
2023-03-26T05:58:20.959Z,55.28
2023-03-26T06:00:47.610Z,55.23
2023-03-26T06:03:15.133Z,54.91
2023-03-26T06:05:42.286Z,54.77
2023-03-26T06:08:08.982Z,54.53
2023-03-26T06:10:38.808Z,53.97
2023-03-26T06:13:05.918Z,53.96
2023-03-26T06:15:32.493Z,53.57
2023-03-26T06:17:59.270Z,53.49
2023-03-26T06:20:25.995Z,53.27
2023-03-26T06:22:52.532Z,53.34
2023-03-26T06:25:19.357Z,53.09
2023-03-26T06:27:45.832Z,52.47
2023-03-26T06:30:12.890Z,52.59
2023-03-26T06:32:39.448Z,52.60
2023-03-26T06:35:08.976Z,52.49
2023-03-26T06:37:35.687Z,52.20
2023-03-26T06:40:02.217Z,51.92
2023-03-26T06:43:06.672Z,51.82
2023-03-26T06:45:15.447Z,51.63
2023-03-26T06:47:42.326Z,51.47
2023-03-26T06:50:10.739Z,50.98
2023-03-26T06:52:37.549Z,50.85
2023-03-26T06:55:06.268Z,50.81
2023-03-26T06:57:32.932Z,50.80
2023-03-26T06:59:59.519Z,50.47
2023-03-26T07:02:26.270Z,50.62
2023-03-26T07:04:52.838Z,50.52
2023-03-26T07:07:19.621Z,50.17
2023-03-26T07:09:46.209Z,49.89
2023-03-26T07:12:12.834Z,49.45
2023-03-26T07:14:39.382Z,49.34
2023-03-26T07:17:05.958Z,49.14
2023-03-26T07:19:33.240Z,49.00
2023-03-26T07:22:00.160Z,48.77
2023-03-26T07:24:27.369Z,47.89
2023-03-26T07:27:12.538Z,47.77
2023-03-26T07:29:48.743Z,47.77
2023-03-26T07:32:23.984Z,47.96
2023-03-26T07:35:19.216Z,48.66
2023-03-26T07:37:57.865Z,48.85
2023-03-26T07:40:48.827Z,49.22
2023-03-26T07:43:37.259Z,49.47
2023-03-26T07:46:04.374Z,49.52
2023-03-26T07:49:00.237Z,49.32
2023-03-26T07:51:27.256Z,48.68
2023-03-26T07:53:54.050Z,48.40
2023-03-26T07:56:29.365Z,48.44
2023-03-26T07:59:24.418Z,47.79
2023-03-26T08:02:09.882Z,47.27
2023-03-26T08:05:06.433Z,47.00
2023-03-26T08:07:35.714Z,46.50
2023-03-26T08:10:21.093Z,46.62
2023-03-26T08:12:50.854Z,46.77
2023-03-26T08:15:41.569Z,47.07
2023-03-26T08:18:08.927Z,46.32
2023-03-26T08:20:39.356Z,45.25
2023-03-26T08:23:14.114Z,45.09
2023-03-26T08:25:52.785Z,45.57
2023-03-26T08:28:35.358Z,45.26
2023-03-26T08:31:02.130Z,44.73
2023-03-26T08:33:30.259Z,44.12
2023-03-26T08:35:56.842Z,44.02
2023-03-26T08:38:23.757Z,44.06
2023-03-26T08:41:07.692Z,43.93
2023-03-26T08:44:12.053Z,44.04
2023-03-26T08:47:20.205Z,43.78
2023-03-26T08:50:18.985Z,44.01
2023-03-26T08:53:07.097Z,44.32
2023-03-26T08:55:55.642Z,44.19
2023-03-26T08:59:06.955Z,43.83
2023-03-26T09:01:58.072Z,43.58
2023-03-26T09:04:49.271Z,43.20
2023-03-26T09:07:40.597Z,42.67
2023-03-26T09:10:10.136Z,42.12
2023-03-26T09:12:36.672Z,41.42
2023-03-26T09:15:06.011Z,41.23
2023-03-26T09:18:05.245Z,40.61
2023-03-26T09:21:02.261Z,40.46
2023-03-26T09:23:51.460Z,40.10
2023-03-26T09:26:24.116Z,39.93
2023-03-26T09:29:11.802Z,39.81
2023-03-26T09:31:38.305Z,39.67
2023-03-26T09:34:23.065Z,38.86
2023-03-26T09:37:07.860Z,37.08
2023-03-26T09:39:39.126Z,36.63
2023-03-26T09:42:29.512Z,35.88
2023-03-26T09:45:17.942Z,35.56
2023-03-26T09:47:47.138Z,36.73
2023-03-26T09:50:38.551Z,37.21
2023-03-26T09:53:33.591Z,35.61
2023-03-26T09:56:22.184Z,35.15
2023-03-26T09:58:51.469Z,34.86
2023-03-26T10:01:20.811Z,34.62
2023-03-26T10:04:02.340Z,34.08
2023-03-26T10:06:36.379Z,33.31
2023-03-26T10:09:07.661Z,33.04
2023-03-26T10:12:02.082Z,33.25
2023-03-26T10:14:46.664Z,32.96
2023-03-26T10:17:22.175Z,31.91
2023-03-26T10:19:54.783Z,31.82
2023-03-26T10:22:33.615Z,32.02
2023-03-26T10:25:16.149Z,33.19
2023-03-26T10:28:03.042Z,35.27
2023-03-26T10:30:47.500Z,36.13
2023-03-26T10:33:41.944Z,37.50
2023-03-26T10:36:30.035Z,42.72
2023-03-26T10:39:37.316Z,44.42
2023-03-26T10:42:31.478Z,52.81
2023-03-26T10:45:26.114Z,51.66
2023-03-26T10:48:06.526Z,53.29
2023-03-26T10:50:51.959Z,54.21
2023-03-26T10:53:40.276Z,53.44
2023-03-26T10:56:35.055Z,53.40
2023-03-26T10:59:12.092Z,48.70
2023-03-26T11:02:17.543Z,43.37
2023-03-26T11:05:49.241Z,37.92
2023-03-26T11:08:31.721Z,31.96
2023-03-26T11:11:15.038Z,30.78
2023-03-26T11:13:56.705Z,31.65
2023-03-26T11:16:55.351Z,33.85
2023-03-26T11:19:40.503Z,36.00
2023-03-26T11:22:41.704Z,37.51
2023-03-26T11:25:45.735Z,38.96
2023-03-26T11:29:03.743Z,40.75
2023-03-26T11:31:59.094Z,43.24
2023-03-26T11:34:32.945Z,43.75
2023-03-26T11:37:04.239Z,42.60
2023-03-26T11:39:34.599Z,42.26
2023-03-26T11:42:12.164Z,42.27
2023-03-26T11:44:45.078Z,42.64
2023-03-26T11:47:15.667Z,43.06
2023-03-26T11:49:45.541Z,43.75
2023-03-26T11:52:15.511Z,43.07
2023-03-26T11:54:42.125Z,43.76
2023-03-26T11:57:16.103Z,42.01
2023-03-26T11:59:56.518Z,41.88
2023-03-26T12:02:37.881Z,41.40
2023-03-26T12:05:21.368Z,41.68
2023-03-26T12:07:55.646Z,41.10
2023-03-26T12:10:43.390Z,40.35
2023-03-26T12:13:29.907Z,41.14
2023-03-26T12:16:06.867Z,41.09
2023-03-26T12:18:33.969Z,40.73
2023-03-26T12:21:09.478Z,40.75
2023-03-26T12:23:51.116Z,40.14
2023-03-26T12:26:18.699Z,39.77
2023-03-26T12:28:50.124Z,40.50
2023-03-26T12:31:19.050Z,40.57
2023-03-26T12:34:03.765Z,40.38
2023-03-26T12:36:33.151Z,39.43
2023-03-26T12:39:16.748Z,38.90
2023-03-26T12:44:42.225Z,38.09
2023-03-26T12:44:58.975Z,37.68
2023-03-26T12:48:00.460Z,38.37
2023-03-26T12:50:17.899Z,36.62
2023-03-26T12:53:27.579Z,36.44
2023-03-26T12:56:19.016Z,36.00
2023-03-26T12:59:17.255Z,34.99
2023-03-26T13:01:54.765Z,33.55
2023-03-26T13:04:49.225Z,33.25
2023-03-26T13:07:40.443Z,33.62
2023-03-26T13:10:28.918Z,32.14
2023-03-26T13:13:18.117Z,31.42
2023-03-26T13:15:52.361Z,31.47
2023-03-26T13:18:49.167Z,31.30
2023-03-26T13:21:18.689Z,31.91
2023-03-26T13:24:00.812Z,32.47
2023-03-26T13:26:51.701Z,32.09
2023-03-26T13:29:36.753Z,32.53
2023-03-26T13:32:12.103Z,32.39
2023-03-26T13:34:47.905Z,31.45
2023-03-26T13:37:18.568Z,31.31
2023-03-26T13:40:00.270Z,31.85
2023-03-26T13:42:45.191Z,31.86
2023-03-26T13:45:13.974Z,31.90
2023-03-26T13:47:48.985Z,31.81
2023-03-26T13:50:25.852Z,32.02
2023-03-26T13:53:27.220Z,31.37
2023-03-26T13:55:57.896Z,30.65
2023-03-26T13:58:34.354Z,30.83
2023-03-26T14:01:22.356Z,30.37
2023-03-26T14:04:11.927Z,30.70
2023-03-26T14:07:01.408Z,30.84
2023-03-26T14:09:40.683Z,30.69
2023-03-26T14:12:22.218Z,31.03
2023-03-26T14:14:55.873Z,30.65
2023-03-26T14:17:25.144Z,30.93
2023-03-26T14:20:00.764Z,30.95
2023-03-26T14:22:42.941Z,30.47
2023-03-26T14:25:47.291Z,30.11
2023-03-26T14:28:51.124Z,30.03
2023-03-26T14:32:02.422Z,29.56
2023-03-26T14:34:55.506Z,28.71
2023-03-26T14:37:34.065Z,27.25
2023-03-26T14:40:22.244Z,25.47
2023-03-26T14:43:20.834Z,24.62
2023-03-26T14:46:09.279Z,24.07
2023-03-26T14:49:01.030Z,24.61
2023-03-26T14:51:36.479Z,24.93
2023-03-26T14:54:08.624Z,24.87
2023-03-26T14:57:04.607Z,24.41
2023-03-26T14:59:58.388Z,24.96
2023-03-26T15:02:25.005Z,25.01
2023-03-26T15:04:54.456Z,25.17
2023-03-26T15:07:47.492Z,24.59
2023-03-26T15:10:41.114Z,24.93
2023-03-26T15:13:54.077Z,25.24
2023-03-26T15:17:02.370Z,25.34
2023-03-26T15:19:53.941Z,26.08
2023-03-26T15:22:29.225Z,26.51
2023-03-26T15:25:01.601Z,26.56
2023-03-26T15:27:46.801Z,26.64
2023-03-26T15:30:55.214Z,27.28
2023-03-26T15:34:00.481Z,28.12
2023-03-26T15:36:59.142Z,28.71
2023-03-26T15:39:59.056Z,28.98
2023-03-26T15:42:32.507Z,29.38
2023-03-26T15:45:20.733Z,29.67
2023-03-26T15:48:07.586Z,29.82
2023-03-26T15:50:57.906Z,29.50
2023-03-26T15:53:24.577Z,29.54
2023-03-26T15:56:13.649Z,29.67
2023-03-26T15:58:59.459Z,29.73
2023-03-26T16:01:32.521Z,29.75
2023-03-26T16:04:14.557Z,29.83
2023-03-26T16:06:59.926Z,29.56
2023-03-26T16:09:38.758Z,29.77
2023-03-26T16:12:17.234Z,29.76
2023-03-26T16:14:43.833Z,30.08
2023-03-26T16:17:19.464Z,30.54
2023-03-26T16:19:45.937Z,30.98
2023-03-26T16:22:34.927Z,31.07
2023-03-26T16:25:26.897Z,31.58
2023-03-26T16:28:26.382Z,31.99
2023-03-26T16:31:10.690Z,32.31
2023-03-26T16:34:17.630Z,32.55
2023-03-26T16:36:48.148Z,32.88
2023-03-26T16:39:22.364Z,32.87
2023-03-26T16:41:55.127Z,32.81
2023-03-26T16:44:40.260Z,32.94
2023-03-26T16:47:06.664Z,32.92
2023-03-26T16:49:45.481Z,33.14
2023-03-26T16:52:22.060Z,33.35
2023-03-26T16:55:03.882Z,33.50
2023-03-26T16:57:50.009Z,33.68
2023-03-26T17:00:28.758Z,33.75
2023-03-26T17:03:03.136Z,34.20
2023-03-26T17:05:54.595Z,34.34
2023-03-26T17:08:35.477Z,34.77
2023-03-26T17:11:16.008Z,34.99
2023-03-26T17:14:04.056Z,34.97
2023-03-26T17:16:42.497Z,35.25
2023-03-26T17:19:24.518Z,35.33
2023-03-26T17:22:05.916Z,35.85
2023-03-26T17:24:39.498Z,35.68
2023-03-26T17:27:28.920Z,35.73
2023-03-26T17:30:09.033Z,36.01
2023-03-26T17:32:59.021Z,36.21
2023-03-26T17:35:50.838Z,36.21
2023-03-26T17:38:17.377Z,36.35
2023-03-26T17:40:55.904Z,36.36
2023-03-26T17:43:44.568Z,36.30
2023-03-26T17:46:41.264Z,36.65
2023-03-26T17:49:17.935Z,36.48
2023-03-26T17:51:52.613Z,36.64
2023-03-26T17:54:24.450Z,36.64
2023-03-26T17:56:53.031Z,36.63
2023-03-26T17:59:22.724Z,36.95
2023-03-26T18:01:57.426Z,36.87
2023-03-26T18:04:33.539Z,37.15
2023-03-26T18:07:27.383Z,37.33
2023-03-26T18:10:15.320Z,37.42
2023-03-26T18:12:54.183Z,38.32
2023-03-26T18:15:30.538Z,37.95
2023-03-26T18:18:09.294Z,37.74
2023-03-26T18:20:36.718Z,37.92
2023-03-26T18:23:12.653Z,38.28
2023-03-26T18:25:39.337Z,38.59
2023-03-26T18:28:05.848Z,38.91
2023-03-26T18:30:32.424Z,38.88
2023-03-26T18:33:11.145Z,39.46
2023-03-26T18:35:46.299Z,39.01
2023-03-26T18:38:18.793Z,39.45
2023-03-26T18:41:02.298Z,39.49
2023-03-26T18:43:34.687Z,40.49
2023-03-26T18:46:03.649Z,40.96
2023-03-26T18:48:30.398Z,41.28
2023-03-26T18:51:00.962Z,41.58
2023-03-26T18:53:38.942Z,42.27
2023-03-26T18:56:29.529Z,41.75
2023-03-26T18:58:59.063Z,40.68
2023-03-26T19:01:27.751Z,40.21
2023-03-26T19:03:54.607Z,39.94
2023-03-26T19:06:21.905Z,39.85
2023-03-26T19:08:49.014Z,39.90
2023-03-26T19:11:17.249Z,39.90
2023-03-26T19:13:43.789Z,39.73
2023-03-26T19:16:40.735Z,39.94
2023-03-26T19:19:07.754Z,39.87
2023-03-26T19:21:36.114Z,39.69
2023-03-26T19:24:04.250Z,39.65
2023-03-26T19:26:31.094Z,39.79
2023-03-26T19:28:58.281Z,39.86
2023-03-26T19:31:26.461Z,39.97
2023-03-26T19:34:00.334Z,39.90
2023-03-26T19:36:29.824Z,39.80
2023-03-26T19:38:59.350Z,39.88
2023-03-26T19:41:38.161Z,39.81
2023-03-26T19:44:20.715Z,40.44
2023-03-26T19:46:53.624Z,41.35
2023-03-26T19:49:41.119Z,41.84
2023-03-26T19:52:18.281Z,41.30
2023-03-26T19:55:00.739Z,41.20
2023-03-26T19:57:32.144Z,41.26
2023-03-26T19:59:59.350Z,41.19
2023-03-26T20:02:27.432Z,41.11
2023-03-26T20:04:54.008Z,41.16
2023-03-26T20:07:35.813Z,41.58
2023-03-26T20:10:04.671Z,41.95
2023-03-26T20:12:31.187Z,41.93
2023-03-26T20:14:57.730Z,41.72
2023-03-26T20:17:24.191Z,41.77
2023-03-26T20:19:50.649Z,41.20
2023-03-26T20:22:18.921Z,41.32
2023-03-26T20:24:45.434Z,41.05
2023-03-26T20:27:11.996Z,41.03
2023-03-26T20:29:38.490Z,40.65
2023-03-26T20:32:06.891Z,40.78
2023-03-26T20:34:33.327Z,40.66
2023-03-26T20:37:01.222Z,40.66
2023-03-26T20:39:28.032Z,40.65
2023-03-26T20:41:55.174Z,40.86
2023-03-26T20:44:22.066Z,41.02
2023-03-26T20:46:50.228Z,40.81
2023-03-26T20:49:17.040Z,41.21
2023-03-26T20:51:44.125Z,42.05
2023-03-26T20:54:20.137Z,42.12
2023-03-26T20:56:47.230Z,42.42
2023-03-26T20:59:18.200Z,42.56
2023-03-26T21:01:45.769Z,42.24
2023-03-26T21:04:12.391Z,42.10
2023-03-26T21:06:38.973Z,43.08
2023-03-26T21:09:05.992Z,42.23
2023-03-26T21:11:55.313Z,41.97
2023-03-26T21:14:25.720Z,41.48
2023-03-26T21:16:52.680Z,41.52
2023-03-26T21:19:19.481Z,41.85
2023-03-26T21:22:03.323Z,41.99
2023-03-26T21:24:41.976Z,41.89
2023-03-26T21:27:27.339Z,41.90
2023-03-26T21:29:55.323Z,42.09
2023-03-26T21:32:22.876Z,42.25
2023-03-26T21:34:58.751Z,42.29
2023-03-26T21:37:26.538Z,42.69
2023-03-26T21:39:53.323Z,42.93
2023-03-26T21:42:20.055Z,43.65
2023-03-26T21:44:46.839Z,44.40
2023-03-26T21:47:13.832Z,45.10
2023-03-26T21:49:40.561Z,46.05
2023-03-26T21:52:07.588Z,46.72
2023-03-26T21:54:34.373Z,47.41
2023-03-26T21:57:22.621Z,48.06
2023-03-26T22:00:06.320Z,48.75
2023-03-26T22:02:55.755Z,49.25
2023-03-26T22:05:54.565Z,49.74
2023-03-26T22:08:36.456Z,50.95
2023-03-26T22:11:02.987Z,51.36
2023-03-26T22:13:29.482Z,52.03
2023-03-26T22:15:55.992Z,52.36
2023-03-26T22:18:22.597Z,52.80
2023-03-26T22:20:49.504Z,52.73
2023-03-26T22:23:16.406Z,52.97
2023-03-26T22:25:42.958Z,53.77
2023-03-26T22:28:09.630Z,54.09
2023-03-26T22:30:36.096Z,54.95
2023-03-26T22:33:02.652Z,55.32
2023-03-26T22:35:29.168Z,55.54
2023-03-26T22:38:00.904Z,55.78
2023-03-26T22:40:27.817Z,56.21
2023-03-26T22:42:54.337Z,56.77
2023-03-26T22:45:20.872Z,57.23
2023-03-26T22:47:47.429Z,57.92
2023-03-26T22:50:14.015Z,58.53
2023-03-26T22:52:40.705Z,59.26
2023-03-26T22:55:08.596Z,59.89
2023-03-26T22:57:35.129Z,60.37
2023-03-26T23:00:01.652Z,60.32
2023-03-26T23:02:28.144Z,60.99
2023-03-26T23:04:54.795Z,61.32
2023-03-26T23:07:21.328Z,61.72
2023-03-26T23:09:47.807Z,62.16
2023-03-26T23:12:14.284Z,62.61
2023-03-26T23:14:40.767Z,63.22
2023-03-26T23:17:07.270Z,63.64
2023-03-26T23:19:33.752Z,64.12
2023-03-26T23:22:00.263Z,64.32
2023-03-26T23:24:26.720Z,64.81
2023-03-26T23:26:53.323Z,65.02
2023-03-26T23:29:20.034Z,65.69
2023-03-26T23:31:46.708Z,65.83
2023-03-26T23:34:13.279Z,66.05
2023-03-26T23:36:39.795Z,66.28
2023-03-26T23:39:06.263Z,66.67
2023-03-26T23:41:32.763Z,67.02
2023-03-26T23:43:59.246Z,67.42
2023-03-26T23:46:28.209Z,67.67
2023-03-26T23:48:54.732Z,67.96
2023-03-26T23:51:21.852Z,68.05
2023-03-26T23:53:49.513Z,68.18
2023-03-26T23:56:16.556Z,68.32
2023-03-26T23:58:43.035Z,68.62
